Terminal Aerodrome Forecast
Issued by NWS

Home | Current Version | Previous Version | Text Only | Print | Product List | Glossary On
Versions: 1 2 3 4 5 6 7 8 9 10 11 12 13
000
FTUS45 KTFX 231100
TAFBZN
TAF
KBZN 231134Z 2312/2412 27010KT P6SM FEW035 BKN060
     FM240000 25005KT P6SM SCT060 BKN100
     FM240600 26010KT P6SM VCSH SCT035 BKN050=

USA.gov is the U.S. government's official web portal to all federal, state and local government web resources and services.